createdAt,value
2022-09-09T00:01:18.097Z,97851.72
2022-09-09T00:03:59.666Z,97851.69
2022-09-09T00:06:43.698Z,97845.22
2022-09-09T00:09:18.629Z,97842.34
2022-09-09T00:11:52.878Z,97859.03
2022-09-09T00:14:26.911Z,97850.84
2022-09-09T00:17:05.726Z,97854.38
2022-09-09T00:20:04.001Z,97853.66
2022-09-09T00:22:32.572Z,97848.41
2022-09-09T00:25:13.982Z,97844.34
2022-09-09T00:27:50.048Z,97840.38
2022-09-09T00:30:27.181Z,97843.13
2022-09-09T00:33:15.820Z,97841.56
2022-09-09T00:35:48.947Z,97839.44
2022-09-09T00:38:25.106Z,97834.09
2022-09-09T00:41:06.923Z,97837.38
2022-09-09T00:43:41.301Z,97839.31
2022-09-09T00:46:38.500Z,97837.94
2022-09-09T00:49:27.745Z,97837.19
2022-09-09T00:52:09.584Z,97839.53
2022-09-09T00:54:53.147Z,97845.25
2022-09-09T00:57:35.450Z,97847.50
2022-09-09T01:00:24.086Z,97846.34
2022-09-09T01:03:32.132Z,97847.50
2022-09-09T01:06:14.179Z,97843.50
2022-09-09T01:09:08.386Z,97844.59
2022-09-09T01:12:15.943Z,97851.53
2022-09-09T01:14:52.142Z,97844.88
2022-09-09T01:17:25.362Z,97851.00
2022-09-09T01:20:18.158Z,97856.09
2022-09-09T01:23:25.973Z,97853.16
2022-09-09T01:26:33.399Z,97853.84
2022-09-09T01:29:09.089Z,97854.00
2022-09-09T01:31:58.799Z,97857.31
2022-09-09T01:34:35.549Z,97854.22
2022-09-09T01:37:10.609Z,97859.53
2022-09-09T01:39:41.279Z,97852.13
2022-09-09T01:42:15.152Z,97864.28
2022-09-09T01:44:42.378Z,97856.25
2022-09-09T01:47:09.964Z,97863.16
2022-09-09T01:49:50.933Z,97857.09
2022-09-09T01:52:23.886Z,97851.03
2022-09-09T01:54:50.982Z,97860.63
2022-09-09T01:57:31.273Z,97860.63
2022-09-09T02:00:14.844Z,97863.38
2022-09-09T02:03:26.987Z,97863.50
2022-09-09T02:06:39.749Z,97854.84
2022-09-09T02:09:24.489Z,97864.59
2022-09-09T02:12:18.384Z,97855.59
2022-09-09T02:15:06.552Z,97850.00
2022-09-09T02:17:43.606Z,97848.16
2022-09-09T02:20:16.459Z,97839.66
2022-09-09T02:22:51.546Z,97848.09
2022-09-09T02:25:24.267Z,97842.56
2022-09-09T02:27:53.194Z,97846.28
2022-09-09T02:30:21.614Z,97841.16
2022-09-09T02:32:58.822Z,97847.75
2022-09-09T02:35:40.707Z,97845.03
2022-09-09T02:38:13.452Z,97855.25
2022-09-09T02:40:44.190Z,97856.09
2022-09-09T02:43:11.377Z,97864.72
2022-09-09T02:46:05.797Z,97845.56
2022-09-09T02:49:03.772Z,97855.13
2022-09-09T02:52:02.313Z,97856.72
2022-09-09T02:54:37.199Z,97851.53
2022-09-09T02:57:17.346Z,97872.91
2022-09-09T02:59:48.828Z,97859.91
2022-09-09T03:02:16.012Z,97867.53
2022-09-09T03:04:51.710Z,97868.28
2022-09-09T03:07:20.471Z,97873.22
2022-09-09T03:09:48.683Z,97867.25
2022-09-09T03:12:15.823Z,97859.16
2022-09-09T03:14:44.163Z,97858.06
2022-09-09T03:17:12.914Z,97853.56
2022-09-09T03:19:46.717Z,97852.53
2022-09-09T03:22:14.382Z,97858.59
2022-09-09T03:24:43.287Z,97847.06
2022-09-09T03:27:10.427Z,97849.41
2022-09-09T03:29:39.021Z,97840.75
2022-09-09T03:32:11.336Z,97842.03
2022-09-09T03:34:42.189Z,97843.41
2022-09-09T03:37:12.214Z,97840.94
2022-09-09T03:39:40.232Z,97837.63
2022-09-09T03:42:08.872Z,97840.72
2022-09-09T03:44:35.912Z,97844.28
2022-09-09T03:47:02.855Z,97851.16
2022-09-09T03:49:30.148Z,97846.41
2022-09-09T03:51:58.426Z,97845.78
2022-09-09T03:54:26.428Z,97849.13
2022-09-09T03:56:53.315Z,97849.66
2022-09-09T03:59:22.246Z,97838.25
2022-09-09T04:01:49.416Z,97847.16
2022-09-09T04:04:16.480Z,97840.16
2022-09-09T04:06:43.686Z,97833.97
2022-09-09T04:09:10.788Z,97836.84
2022-09-09T04:11:38.134Z,97852.72
2022-09-09T04:14:06.999Z,97857.63
2022-09-09T04:16:36.360Z,97855.66
2022-09-09T04:19:05.181Z,97859.19
2022-09-09T04:21:32.696Z,97861.31
2022-09-09T04:24:01.289Z,97861.28
2022-09-09T04:26:28.341Z,97860.47
2022-09-09T04:28:56.325Z,97851.00
2022-09-09T04:31:24.898Z,97861.28
2022-09-09T04:33:54.869Z,97856.19
2022-09-09T04:36:22.674Z,97840.88
2022-09-09T04:38:52.218Z,97846.31
2022-09-09T04:41:19.381Z,97846.25
2022-09-09T04:43:49.970Z,97850.25
2022-09-09T04:46:18.376Z,97851.63
2022-09-09T04:48:45.533Z,97853.22
2022-09-09T04:51:14.943Z,97855.81
2022-09-09T04:53:43.481Z,97861.19
2022-09-09T04:56:17.858Z,97858.44
2022-09-09T04:58:53.492Z,97859.50
2022-09-09T05:01:25.195Z,97854.56
2022-09-09T05:03:54.466Z,97866.25
2022-09-09T05:06:23.641Z,97870.38
2022-09-09T05:08:56.317Z,97872.19
2022-09-09T05:11:33.204Z,97878.41
2022-09-09T05:14:06.149Z,97880.34
2022-09-09T05:16:34.426Z,97881.25
2022-09-09T05:19:04.120Z,97891.66
2022-09-09T05:21:42.562Z,97883.44
2022-09-09T05:24:09.457Z,97890.97
2022-09-09T05:26:36.661Z,97893.81
2022-09-09T05:29:03.807Z,97889.69
2022-09-09T05:31:32.374Z,97895.56
2022-09-09T05:34:03.080Z,97899.25
2022-09-09T05:36:30.056Z,97901.16
2022-09-09T05:38:57.828Z,97899.66
2022-09-09T05:41:27.178Z,97893.44
2022-09-09T05:43:56.645Z,97898.38
2022-09-09T05:46:26.120Z,97895.75
2022-09-09T05:48:55.109Z,97902.03
2022-09-09T05:51:31.666Z,97903.41
2022-09-09T05:54:02.429Z,97902.91
2022-09-09T05:56:33.447Z,97900.19
2022-09-09T05:59:01.893Z,97909.75
2022-09-09T06:01:32.818Z,97900.38
2022-09-09T06:04:01.032Z,97898.38
2022-09-09T06:06:37.446Z,97912.66
2022-09-09T06:09:10.690Z,97906.91
2022-09-09T06:11:40.962Z,97915.69
2022-09-09T06:14:09.135Z,97924.41
2022-09-09T06:16:38.816Z,97910.84
2022-09-09T06:19:13.172Z,97909.25
2022-09-09T06:21:41.186Z,97904.56
2022-09-09T06:24:09.561Z,97910.88
2022-09-09T06:26:41.538Z,97905.34
2022-09-09T06:29:10.779Z,97899.63
2022-09-09T06:31:38.770Z,97898.19
2022-09-09T06:34:12.429Z,97901.31
2022-09-09T06:36:42.083Z,97896.31
2022-09-09T06:39:14.636Z,97892.19
2022-09-09T06:41:43.615Z,97891.75
2022-09-09T06:44:31.137Z,97900.50
2022-09-09T06:47:00.446Z,97901.09
2022-09-09T06:49:27.861Z,97895.81
2022-09-09T06:51:55.146Z,97901.00
2022-09-09T06:54:23.819Z,97906.66
2022-09-09T06:56:51.262Z,97910.22
2022-09-09T06:59:23.087Z,97911.03
2022-09-09T07:01:55.766Z,97912.47
2022-09-09T07:04:23.517Z,97905.47
2022-09-09T07:06:50.752Z,97909.59
2022-09-09T07:09:24.762Z,97910.91
2022-09-09T07:11:54.084Z,97914.44
2022-09-09T07:14:23.539Z,97914.50
2022-09-09T07:16:59.468Z,97922.31
2022-09-09T07:19:27.197Z,97913.81
2022-09-09T07:21:54.981Z,97920.47
2022-09-09T07:24:24.686Z,97916.25
2022-09-09T07:26:53.195Z,97920.94
2022-09-09T07:29:21.273Z,97913.88
2022-09-09T07:31:49.661Z,97913.63
2022-09-09T07:34:22.156Z,97912.75
2022-09-09T07:36:49.844Z,97910.41
2022-09-09T07:39:18.863Z,97908.84
2022-09-09T07:41:52.384Z,97916.78
2022-09-09T07:44:25.873Z,97911.16
2022-09-09T07:47:06.598Z,97925.22
2022-09-09T07:49:40.489Z,97921.97
2022-09-09T07:52:08.833Z,97926.31
2022-09-09T07:54:37.225Z,97919.81
2022-09-09T07:57:06.337Z,97929.63
2022-09-09T07:59:35.921Z,97925.38
2022-09-09T08:02:03.959Z,97923.13
2022-09-09T08:04:33.422Z,97916.91
2022-09-09T08:07:05.341Z,97904.31
2022-09-09T08:09:41.772Z,97929.69
2022-09-09T08:12:15.405Z,97926.34
2022-09-09T08:14:42.341Z,97934.59
2022-09-09T08:17:09.613Z,97937.63
2022-09-09T08:19:38.019Z,97939.56
2022-09-09T08:22:10.457Z,97944.63
2022-09-09T08:24:40.272Z,97932.03
2022-09-09T08:27:07.980Z,97928.28
2022-09-09T08:29:35.539Z,97929.16
2022-09-09T08:32:03.453Z,97930.00
2022-09-09T08:34:32.207Z,97930.47
2022-09-09T08:37:02.167Z,97942.78
2022-09-09T08:39:35.000Z,97940.78
2022-09-09T08:42:42.383Z,97944.31
2022-09-09T08:45:27.520Z,97943.97
2022-09-09T08:48:39.207Z,97943.00
2022-09-09T08:51:08.230Z,97947.78
2022-09-09T08:53:49.490Z,97952.22
2022-09-09T08:56:24.951Z,97953.72
2022-09-09T08:59:00.602Z,97950.06
2022-09-09T09:02:11.382Z,97951.03
2022-09-09T09:05:26.417Z,97950.31
2022-09-09T09:08:13.553Z,97939.53
2022-09-09T09:10:51.623Z,97944.28
2022-09-09T09:13:46.803Z,97948.28
2022-09-09T09:16:46.762Z,97932.34
2022-09-09T09:19:17.436Z,97935.88
2022-09-09T09:21:53.944Z,97932.78
2022-09-09T09:24:43.237Z,97929.31
2022-09-09T09:27:17.378Z,97926.59
2022-09-09T09:30:18.415Z,97931.63
2022-09-09T09:32:42.246Z,97917.56
2022-09-09T09:35:14.244Z,97921.28
2022-09-09T09:40:32.549Z,97902.84
2022-09-09T09:43:02.009Z,97897.56
2022-09-09T09:46:06.775Z,97903.34
2022-09-09T09:48:35.602Z,97909.06
2022-09-09T09:51:13.275Z,97903.84
2022-09-09T09:53:40.733Z,97906.50
2022-09-09T09:56:13.216Z,97903.03
2022-09-09T09:58:50.632Z,97899.28
2022-09-09T10:01:37.087Z,97892.66
2022-09-09T10:04:21.624Z,97889.41
2022-09-09T10:06:50.432Z,97890.19
2022-09-09T10:09:29.454Z,97884.72
2022-09-09T10:12:29.410Z,97889.09
2022-09-09T10:15:22.659Z,97888.41
2022-09-09T10:18:33.143Z,97886.59
2022-09-09T10:21:23.907Z,97892.50
2022-09-09T10:24:12.292Z,97882.34
2022-09-09T10:27:01.062Z,97893.91
2022-09-09T10:29:48.960Z,97894.38
2022-09-09T10:32:56.608Z,97889.03
2022-09-09T10:35:50.255Z,97892.59
2022-09-09T10:38:47.678Z,97882.25
2022-09-09T10:41:53.208Z,97873.47
2022-09-09T10:44:58.058Z,97884.94
2022-09-09T10:47:51.907Z,97894.75
2022-09-09T10:51:05.599Z,97885.97
2022-09-09T10:53:44.134Z,97885.34
2022-09-09T10:56:16.078Z,97886.63
2022-09-09T10:58:56.105Z,97888.25
2022-09-09T11:01:35.003Z,97883.56
2022-09-09T11:04:35.096Z,97885.38
2022-09-09T11:07:11.816Z,97885.88
2022-09-09T11:09:49.388Z,97871.91
2022-09-09T11:12:28.427Z,97873.25
2022-09-09T11:15:10.015Z,97879.44
2022-09-09T11:17:57.966Z,97885.81
2022-09-09T11:20:26.562Z,97876.06
2022-09-09T11:22:59.200Z,97880.38
2022-09-09T11:25:42.052Z,97865.72
2022-09-09T11:28:32.740Z,97866.22
2022-09-09T11:31:13.034Z,97858.94
2022-09-09T11:34:27.118Z,97861.41
2022-09-09T11:37:33.243Z,97872.47
2022-09-09T11:40:18.454Z,97881.63
2022-09-09T11:42:45.675Z,97897.34
2022-09-09T11:45:25.168Z,97921.34
2022-09-09T11:47:57.630Z,97941.22
2022-09-09T11:50:24.456Z,97938.13
2022-09-09T11:52:54.704Z,97941.16
2022-09-09T11:55:27.558Z,97946.78
2022-09-09T11:58:03.691Z,97963.66
2022-09-09T12:00:49.259Z,97971.28
2022-09-09T12:03:45.408Z,97978.91
2022-09-09T12:06:28.219Z,97971.97
2022-09-09T12:09:05.417Z,97981.84
2022-09-09T12:11:32.322Z,97978.78
2022-09-09T12:14:04.408Z,97961.91
2022-09-09T12:16:39.396Z,97953.31
2022-09-09T12:19:15.590Z,97942.44
2022-09-09T12:22:00.586Z,97937.13
2022-09-09T12:24:50.095Z,97929.84
2022-09-09T12:27:34.952Z,97933.81
2022-09-09T12:30:12.105Z,97912.97
2022-09-09T12:32:39.069Z,97929.66
2022-09-09T12:35:25.395Z,97924.13
2022-09-09T12:38:00.248Z,97929.38
2022-09-09T12:40:35.951Z,97937.34
2022-09-09T12:43:18.458Z,97926.22
2022-09-09T12:45:46.247Z,97921.63
2022-09-09T12:48:16.596Z,97922.06
2022-09-09T12:50:50.616Z,97915.34
2022-09-09T12:53:27.311Z,97911.38
2022-09-09T12:56:22.130Z,97908.19
2022-09-09T12:58:55.245Z,97899.03
2022-09-09T13:01:29.530Z,97894.06
2022-09-09T13:03:57.479Z,97901.56
2022-09-09T13:06:29.261Z,97899.13
2022-09-09T13:09:02.140Z,97900.47
2022-09-09T13:11:44.742Z,97901.56
2022-09-09T13:14:30.089Z,97890.09
2022-09-09T13:17:02.343Z,97881.63
2022-09-09T13:19:34.713Z,97878.47
2022-09-09T13:22:15.809Z,97871.41
2022-09-09T13:24:43.598Z,97874.59
2022-09-09T13:27:32.341Z,97870.88
2022-09-09T13:29:59.266Z,97868.03
2022-09-09T13:32:30.361Z,97875.16
2022-09-09T13:35:02.294Z,97877.31
2022-09-09T13:37:38.918Z,97866.75
2022-09-09T13:40:07.654Z,97861.66
2022-09-09T13:42:40.232Z,97859.81
2022-09-09T13:45:21.501Z,97860.59
2022-09-09T13:47:53.513Z,97864.91
2022-09-09T13:50:28.413Z,97861.13
2022-09-09T13:52:59.275Z,97853.28
2022-09-09T13:55:30.815Z,97860.06
2022-09-09T13:58:03.914Z,97844.66
2022-09-09T14:00:33.778Z,97839.13
2022-09-09T14:03:03.001Z,97842.75
2022-09-09T14:05:33.019Z,97839.47
2022-09-09T14:08:01.540Z,97842.31
2022-09-09T14:10:28.512Z,97841.50
2022-09-09T14:12:55.408Z,97832.22
2022-09-09T14:15:22.894Z,97832.91
2022-09-09T14:17:49.879Z,97839.44
2022-09-09T14:20:18.503Z,97832.69
2022-09-09T14:22:45.527Z,97842.56
2022-09-09T14:25:14.478Z,97832.84
2022-09-09T14:27:42.110Z,97835.13
2022-09-09T14:30:10.381Z,97835.34
2022-09-09T14:32:37.675Z,97832.81
2022-09-09T14:35:05.158Z,97840.13
2022-09-09T14:37:32.173Z,97832.03
2022-09-09T14:39:59.604Z,97835.63
2022-09-09T14:42:27.650Z,97833.09
2022-09-09T14:44:54.542Z,97821.72
2022-09-09T14:47:21.445Z,97829.34
2022-09-09T14:49:50.455Z,97821.19
2022-09-09T14:52:17.959Z,97820.34
2022-09-09T14:54:44.924Z,97813.38
2022-09-09T14:57:12.263Z,97823.31
2022-09-09T14:59:39.214Z,97823.06
2022-09-09T15:02:06.606Z,97823.41
2022-09-09T15:04:33.814Z,97827.13
2022-09-09T15:07:00.687Z,97809.44
2022-09-09T15:09:27.653Z,97816.94
2022-09-09T15:11:54.565Z,97823.66
2022-09-09T15:14:23.890Z,97826.91
2022-09-09T15:16:52.518Z,97824.22
2022-09-09T15:19:19.534Z,97827.72
2022-09-09T15:21:46.664Z,97826.19
2022-09-09T15:24:14.534Z,97823.94
2022-09-09T15:26:41.535Z,97820.72
2022-09-09T15:29:09.161Z,97821.94
2022-09-09T15:31:36.852Z,97812.53
2022-09-09T15:34:06.564Z,97802.38
2022-09-09T15:36:46.999Z,97813.63
2022-09-09T15:39:17.266Z,97815.81
2022-09-09T15:41:48.793Z,97818.25
2022-09-09T15:44:16.697Z,97823.94
2022-09-09T15:46:57.375Z,97817.22
2022-09-09T15:49:26.525Z,97821.53
2022-09-09T15:52:04.306Z,97840.78
2022-09-09T15:54:37.202Z,97831.41
2022-09-09T15:57:08.344Z,97835.19
2022-09-09T15:59:35.553Z,97844.25
2022-09-09T16:02:02.949Z,97836.19
2022-09-09T16:04:30.553Z,97837.34
2022-09-09T16:07:04.175Z,97840.94
2022-09-09T16:09:32.333Z,97838.44
2022-09-09T16:12:07.333Z,97841.19
2022-09-09T16:14:36.631Z,97825.50
2022-09-09T16:17:04.948Z,97838.47
2022-09-09T16:19:32.134Z,97837.94
2022-09-09T16:21:59.179Z,97841.97
2022-09-09T16:24:26.617Z,97844.38
2022-09-09T16:26:55.463Z,97843.38
2022-09-09T16:29:23.837Z,97844.69
2022-09-09T16:31:51.400Z,97853.22
2022-09-09T16:34:19.505Z,97848.78
2022-09-09T16:36:49.242Z,97852.91
2022-09-09T16:39:19.919Z,97859.81
2022-09-09T16:41:48.533Z,97861.50
2022-09-09T16:44:19.215Z,97864.25
2022-09-09T16:46:49.715Z,97885.31
2022-09-09T16:49:17.499Z,97934.00
2022-09-09T16:51:50.694Z,97928.94
2022-09-09T16:54:19.191Z,97928.94
2022-09-09T16:56:48.526Z,97912.88
2022-09-09T16:59:18.707Z,97933.50
2022-09-09T17:01:48.818Z,97940.66
2022-09-09T17:04:24.668Z,97928.31
2022-09-09T17:06:54.361Z,97932.81
2022-09-09T17:09:23.782Z,97937.47
2022-09-09T17:11:54.145Z,97920.81
2022-09-09T17:14:23.357Z,97926.81
2022-09-09T17:16:50.442Z,97930.34
2022-09-09T17:19:17.450Z,97929.78
2022-09-09T17:22:12.484Z,97921.28
2022-09-09T17:24:32.077Z,97937.66
2022-09-09T17:26:59.047Z,97943.97
2022-09-09T17:29:26.597Z,97933.44
2022-09-09T17:31:54.670Z,97925.56
2022-09-09T17:34:22.009Z,97930.34
2022-09-09T17:36:49.117Z,97923.13
2022-09-09T17:39:16.128Z,97925.06
2022-09-09T17:41:43.060Z,97924.41
2022-09-09T17:44:10.888Z,97912.34
2022-09-09T17:46:43.250Z,97913.44
2022-09-09T17:49:13.288Z,97905.81
2022-09-09T17:51:42.524Z,97918.28
2022-09-09T17:54:17.415Z,97918.28
2022-09-09T17:56:45.342Z,97927.75
2022-09-09T17:59:14.228Z,97926.13
2022-09-09T18:01:46.928Z,97934.50
2022-09-09T18:04:16.529Z,97950.69
2022-09-09T18:06:47.732Z,97955.69
2022-09-09T18:09:19.425Z,97956.28
2022-09-09T18:11:49.211Z,97948.06
2022-09-09T18:14:20.237Z,97958.06
2022-09-09T18:16:48.695Z,97954.03
2022-09-09T18:19:20.144Z,97950.63
2022-09-09T18:21:47.674Z,97959.44
2022-09-09T18:24:17.701Z,97952.47
2022-09-09T18:26:45.610Z,97960.06
2022-09-09T18:29:15.722Z,97971.81
2022-09-09T18:31:43.036Z,97975.16
2022-09-09T18:34:12.881Z,97974.06
2022-09-09T18:36:49.367Z,97971.28
2022-09-09T18:39:18.930Z,97982.97
2022-09-09T18:41:49.131Z,97988.97
2022-09-09T18:44:23.615Z,97992.09
2022-09-09T18:46:52.453Z,97998.09
2022-09-09T18:49:22.297Z,98000.31
2022-09-09T18:51:49.840Z,98006.16
2022-09-09T18:54:23.440Z,98021.75
2022-09-09T18:56:50.766Z,98023.53
2022-09-09T18:59:20.646Z,98022.63
2022-09-09T19:01:50.586Z,98018.25
2022-09-09T19:04:19.681Z,98018.41
2022-09-09T19:06:49.024Z,98016.03
2022-09-09T19:09:18.739Z,98016.34
2022-09-09T19:11:46.408Z,98003.38
2022-09-09T19:14:15.989Z,98009.56
2022-09-09T19:16:45.225Z,98007.41
2022-09-09T19:19:16.863Z,98009.50
2022-09-09T19:21:44.913Z,98006.53
2022-09-09T19:24:16.359Z,98007.13
2022-09-09T19:26:48.148Z,98017.78
2022-09-09T19:29:18.018Z,98013.06
2022-09-09T19:32:06.553Z,98010.56
2022-09-09T19:34:33.622Z,98014.81
2022-09-09T19:37:00.535Z,98010.44
2022-09-09T19:39:27.455Z,98006.22
2022-09-09T19:41:54.352Z,98010.38
2022-09-09T19:44:21.555Z,98016.22
2022-09-09T19:46:48.484Z,98008.03
2022-09-09T19:49:15.519Z,98011.31
2022-09-09T19:51:43.293Z,98017.78
2022-09-09T19:54:14.127Z,98022.19
2022-09-09T19:56:42.856Z,98024.81
2022-09-09T19:59:12.051Z,98023.50
2022-09-09T20:01:44.424Z,98022.00
2022-09-09T20:04:13.321Z,98024.50
2022-09-09T20:06:44.053Z,98027.22
2022-09-09T20:09:18.488Z,98022.19
2022-09-09T20:11:47.761Z,98032.22
2022-09-09T20:14:15.769Z,98023.13
2022-09-09T20:16:43.056Z,98024.72
2022-09-09T20:19:12.398Z,98027.66
2022-09-09T20:21:47.527Z,98033.91
2022-09-09T20:24:18.623Z,98033.47
2022-09-09T20:26:48.114Z,98038.34
2022-09-09T20:29:18.935Z,98046.22
2022-09-09T20:31:46.660Z,98032.97
2022-09-09T20:34:18.678Z,98040.69
2022-09-09T20:36:46.259Z,98041.28
2022-09-09T20:39:19.916Z,98037.03
2022-09-09T20:41:47.623Z,98035.78
2022-09-09T20:44:21.645Z,98040.03
2022-09-09T20:46:52.548Z,98041.25
2022-09-09T20:49:22.410Z,98046.19
2022-09-09T20:51:50.390Z,98051.06
2022-09-09T20:54:23.749Z,98047.53
2022-09-09T20:56:52.836Z,98056.91
2022-09-09T20:59:23.482Z,98047.81
2022-09-09T21:01:51.527Z,98046.53
2022-09-09T21:04:20.374Z,98051.31
2022-09-09T21:06:50.051Z,98053.09
2022-09-09T21:09:17.836Z,98052.75
2022-09-09T21:11:44.764Z,98048.44
2022-09-09T21:14:12.460Z,98047.06
2022-09-09T21:16:39.325Z,98043.19
2022-09-09T21:19:06.764Z,98048.63
2022-09-09T21:21:33.759Z,98047.34
2022-09-09T21:24:00.784Z,98052.06
2022-09-09T21:26:28.442Z,98049.31
2022-09-09T21:28:55.845Z,98042.06
2022-09-09T21:31:27.917Z,98039.16
2022-09-09T21:33:59.431Z,98044.94
2022-09-09T21:36:28.625Z,98045.28
2022-09-09T21:38:57.755Z,98048.75
2022-09-09T21:41:24.764Z,98046.63
2022-09-09T21:43:54.165Z,98047.28
2022-09-09T21:46:23.006Z,98041.06
2022-09-09T21:48:50.522Z,98041.88
2022-09-09T21:51:18.151Z,98048.75
2022-09-09T21:53:45.351Z,98043.75
2022-09-09T21:56:16.533Z,98052.38
2022-09-09T21:58:43.433Z,98057.22
2022-09-09T22:01:13.229Z,98061.09
2022-09-09T22:03:42.450Z,98047.75
2022-09-09T22:06:12.547Z,98055.25
2022-09-09T22:08:40.007Z,98057.09
2022-09-09T22:11:17.110Z,98048.66
2022-09-09T22:13:45.994Z,98041.53
2022-09-09T22:16:17.130Z,98054.38
2022-09-09T22:18:44.798Z,98047.53
2022-09-09T22:21:14.856Z,98045.41
2022-09-09T22:23:41.926Z,98050.13
2022-09-09T22:26:09.747Z,98044.56
2022-09-09T22:28:38.541Z,98038.44
2022-09-09T22:31:06.075Z,98034.66
2022-09-09T22:33:33.211Z,98043.88
2022-09-09T22:36:00.240Z,98041.16
2022-09-09T22:38:27.107Z,98037.88
2022-09-09T22:40:54.635Z,98039.75
2022-09-09T22:43:22.692Z,98044.53
2022-09-09T22:45:50.775Z,98042.00
2022-09-09T22:48:17.951Z,98035.66
2022-09-09T22:50:45.141Z,98049.13
2022-09-09T22:53:17.821Z,98039.91
2022-09-09T22:56:00.312Z,98042.69
2022-09-09T22:58:29.545Z,98046.63
2022-09-09T23:00:58.725Z,98046.53
2022-09-09T23:03:31.029Z,98049.09
2022-09-09T23:06:00.989Z,98049.75
2022-09-09T23:08:38.468Z,98057.47
2022-09-09T23:11:11.546Z,98060.63
2022-09-09T23:13:41.452Z,98061.91
2022-09-09T23:16:14.214Z,98063.25
2022-09-09T23:18:41.771Z,98072.00
2022-09-09T23:21:12.474Z,98081.53
2022-09-09T23:23:43.540Z,98080.56
2022-09-09T23:26:14.041Z,98091.34
2022-09-09T23:28:44.109Z,98114.31
2022-09-09T23:31:13.770Z,98110.94
2022-09-09T23:33:43.063Z,98113.59
2022-09-09T23:36:19.122Z,98115.97
2022-09-09T23:38:46.295Z,98114.59
2022-09-09T23:41:19.690Z,98106.97
2022-09-09T23:43:52.238Z,98104.03
2022-09-09T23:46:22.614Z,98097.03
2022-09-09T23:48:52.674Z,98093.97
2022-09-09T23:51:23.906Z,98098.34
2022-09-09T23:53:53.942Z,98090.53
2022-09-09T23:56:22.792Z,98096.06
2022-09-09T23:58:50.520Z,98091.53
